sensor_id;sensor_type;location;lat;lon;timestamp;P1;durP1;ratioP1;P2;durP2;ratioP2
48751;SDS011;34544;48.836;9.174;2023-05-16T00:02:15;13.18;;;10.65;;
48751;SDS011;34544;48.836;9.174;2023-05-16T00:04:41;14.73;;;11.00;;
48751;SDS011;34544;48.836;9.174;2023-05-16T00:07:06;15.68;;;11.95;;
48751;SDS011;34544;48.836;9.174;2023-05-16T00:09:32;12.15;;;10.85;;
48751;SDS011;34544;48.836;9.174;2023-05-16T00:11:58;12.93;;;11.50;;
48751;SDS011;34544;48.836;9.174;2023-05-16T00:14:23;14.68;;;12.18;;
48751;SDS011;34544;48.836;9.174;2023-05-16T00:16:51;15.23;;;11.65;;
48751;SDS011;34544;48.836;9.174;2023-05-16T00:19:17;15.43;;;12.88;;
48751;SDS011;34544;48.836;9.174;2023-05-16T00:21:44;13.18;;;11.77;;
48751;SDS011;34544;48.836;9.174;2023-05-16T00:24:10;13.38;;;11.60;;
48751;SDS011;34544;48.836;9.174;2023-05-16T00:26:35;14.40;;;11.90;;
48751;SDS011;34544;48.836;9.174;2023-05-16T00:29:01;15.25;;;12.82;;
48751;SDS011;34544;48.836;9.174;2023-05-16T00:31:29;15.35;;;12.38;;
48751;SDS011;34544;48.836;9.174;2023-05-16T00:33:54;12.48;;;10.95;;
48751;SDS011;34544;48.836;9.174;2023-05-16T00:36:20;13.55;;;11.85;;
48751;SDS011;34544;48.836;9.174;2023-05-16T00:38:46;15.27;;;12.35;;
48751;SDS011;34544;48.836;9.174;2023-05-16T00:41:12;15.48;;;12.75;;
48751;SDS011;34544;48.836;9.174;2023-05-16T00:43:37;16.73;;;12.77;;
48751;SDS011;34544;48.836;9.174;2023-05-16T00:46:04;15.93;;;12.65;;
48751;SDS011;34544;48.836;9.174;2023-05-16T00:48:30;16.02;;;13.00;;
48751;SDS011;34544;48.836;9.174;2023-05-16T00:50:58;18.70;;;14.68;;
48751;SDS011;34544;48.836;9.174;2023-05-16T00:53:25;15.90;;;14.20;;
48751;SDS011;34544;48.836;9.174;2023-05-16T00:55:51;16.05;;;13.73;;
48751;SDS011;34544;48.836;9.174;2023-05-16T00:58:17;18.08;;;14.98;;
48751;SDS011;34544;48.836;9.174;2023-05-16T01:00:43;17.10;;;15.18;;
48751;SDS011;34544;48.836;9.174;2023-05-16T01:03:11;17.92;;;15.02;;
48751;SDS011;34544;48.836;9.174;2023-05-16T01:05:37;19.30;;;15.50;;
48751;SDS011;34544;48.836;9.174;2023-05-16T01:08:04;18.73;;;14.63;;
48751;SDS011;34544;48.836;9.174;2023-05-16T01:10:31;18.35;;;14.30;;
48751;SDS011;34544;48.836;9.174;2023-05-16T01:15:37;18.77;;;15.80;;
48751;SDS011;34544;48.836;9.174;2023-05-16T01:18:22;18.88;;;16.40;;
48751;SDS011;34544;48.836;9.174;2023-05-16T01:21:00;24.23;;;16.17;;
48751;SDS011;34544;48.836;9.174;2023-05-16T01:28:51;21.33;;;17.85;;
48751;SDS011;34544;48.836;9.174;2023-05-16T01:31:18;24.13;;;18.10;;
48751;SDS011;34544;48.836;9.174;2023-05-16T01:33:47;21.80;;;18.35;;
48751;SDS011;34544;48.836;9.174;2023-05-16T01:39:26;33.38;;;24.23;;
48751;SDS011;34544;48.836;9.174;2023-05-16T01:42:12;39.53;;;28.45;;
48751;SDS011;34544;48.836;9.174;2023-05-16T01:44:44;38.00;;;26.15;;
48751;SDS011;34544;48.836;9.174;2023-05-16T01:47:15;43.35;;;29.73;;
48751;SDS011;34544;48.836;9.174;2023-05-16T01:49:46;40.70;;;29.33;;
48751;SDS011;34544;48.836;9.174;2023-05-16T01:52:19;41.92;;;30.60;;
48751;SDS011;34544;48.836;9.174;2023-05-16T01:54:53;41.35;;;28.95;;
48751;SDS011;34544;48.836;9.174;2023-05-16T01:57:24;36.90;;;28.20;;
48751;SDS011;34544;48.836;9.174;2023-05-16T01:59:51;42.50;;;29.13;;
48751;SDS011;34544;48.836;9.174;2023-05-16T02:02:17;36.67;;;28.52;;
48751;SDS011;34544;48.836;9.174;2023-05-16T02:04:44;36.70;;;28.27;;
48751;SDS011;34544;48.836;9.174;2023-05-16T02:07:12;39.25;;;30.23;;
48751;SDS011;34544;48.836;9.174;2023-05-16T02:09:39;43.95;;;28.25;;
48751;SDS011;34544;48.836;9.174;2023-05-16T02:12:05;37.20;;;29.33;;
48751;SDS011;34544;48.836;9.174;2023-05-16T02:14:31;42.97;;;32.53;;
48751;SDS011;34544;48.836;9.174;2023-05-16T02:16:57;32.97;;;28.35;;
48751;SDS011;34544;48.836;9.174;2023-05-16T02:19:23;38.63;;;29.23;;
48751;SDS011;34544;48.836;9.174;2023-05-16T02:21:49;41.10;;;30.35;;
48751;SDS011;34544;48.836;9.174;2023-05-16T02:24:15;35.42;;;27.00;;
48751;SDS011;34544;48.836;9.174;2023-05-16T02:26:41;45.53;;;29.60;;
48751;SDS011;34544;48.836;9.174;2023-05-16T02:29:07;40.72;;;28.77;;
48751;SDS011;34544;48.836;9.174;2023-05-16T02:31:33;42.33;;;30.33;;
48751;SDS011;34544;48.836;9.174;2023-05-16T02:33:59;42.72;;;31.63;;
48751;SDS011;34544;48.836;9.174;2023-05-16T02:36:25;41.75;;;31.83;;
48751;SDS011;34544;48.836;9.174;2023-05-16T02:38:51;46.78;;;31.20;;
48751;SDS011;34544;48.836;9.174;2023-05-16T02:41:20;44.13;;;33.63;;
48751;SDS011;34544;48.836;9.174;2023-05-16T02:43:47;38.40;;;30.55;;
48751;SDS011;34544;48.836;9.174;2023-05-16T02:46:22;47.42;;;31.48;;
48751;SDS011;34544;48.836;9.174;2023-05-16T02:48:55;45.92;;;32.65;;
48751;SDS011;34544;48.836;9.174;2023-05-16T02:51:22;47.17;;;33.65;;
48751;SDS011;34544;48.836;9.174;2023-05-16T02:53:50;50.67;;;32.35;;
48751;SDS011;34544;48.836;9.174;2023-05-16T02:56:16;47.92;;;32.90;;
48751;SDS011;34544;48.836;9.174;2023-05-16T02:58:43;51.05;;;33.88;;
48751;SDS011;34544;48.836;9.174;2023-05-16T03:01:11;48.65;;;32.92;;
48751;SDS011;34544;48.836;9.174;2023-05-16T03:03:36;49.40;;;33.72;;
48751;SDS011;34544;48.836;9.174;2023-05-16T03:06:02;50.10;;;33.85;;
48751;SDS011;34544;48.836;9.174;2023-05-16T03:08:28;52.78;;;33.60;;
48751;SDS011;34544;48.836;9.174;2023-05-16T03:10:55;54.00;;;33.60;;
48751;SDS011;34544;48.836;9.174;2023-05-16T03:13:20;54.63;;;33.47;;
48751;SDS011;34544;48.836;9.174;2023-05-16T03:15:47;52.95;;;34.75;;
48751;SDS011;34544;48.836;9.174;2023-05-16T03:18:13;53.72;;;34.55;;
48751;SDS011;34544;48.836;9.174;2023-05-16T03:20:38;54.83;;;32.55;;
48751;SDS011;34544;48.836;9.174;2023-05-16T03:23:04;61.33;;;35.95;;
48751;SDS011;34544;48.836;9.174;2023-05-16T03:25:34;62.38;;;39.20;;
48751;SDS011;34544;48.836;9.174;2023-05-16T03:28:04;56.75;;;36.60;;
48751;SDS011;34544;48.836;9.174;2023-05-16T03:30:34;58.00;;;37.45;;
48751;SDS011;34544;48.836;9.174;2023-05-16T03:32:59;67.60;;;39.22;;
48751;SDS011;34544;48.836;9.174;2023-05-16T03:35:34;62.47;;;38.75;;
48751;SDS011;34544;48.836;9.174;2023-05-16T03:38:01;62.20;;;36.83;;
48751;SDS011;34544;48.836;9.174;2023-05-16T03:40:27;66.43;;;38.80;;
48751;SDS011;34544;48.836;9.174;2023-05-16T03:42:53;59.10;;;37.95;;
48751;SDS011;34544;48.836;9.174;2023-05-16T03:45:18;65.30;;;39.28;;
48751;SDS011;34544;48.836;9.174;2023-05-16T03:47:44;66.07;;;38.45;;
48751;SDS011;34544;48.836;9.174;2023-05-16T03:50:09;63.30;;;37.55;;
48751;SDS011;34544;48.836;9.174;2023-05-16T03:52:35;68.10;;;39.80;;
48751;SDS011;34544;48.836;9.174;2023-05-16T03:55:02;70.78;;;40.85;;
48751;SDS011;34544;48.836;9.174;2023-05-16T03:57:31;63.25;;;40.85;;
48751;SDS011;34544;48.836;9.174;2023-05-16T03:59:58;66.97;;;42.20;;
48751;SDS011;34544;48.836;9.174;2023-05-16T04:02:24;65.00;;;38.97;;
48751;SDS011;34544;48.836;9.174;2023-05-16T04:04:49;76.97;;;39.72;;
48751;SDS011;34544;48.836;9.174;2023-05-16T04:07:15;66.25;;;38.97;;
48751;SDS011;34544;48.836;9.174;2023-05-16T04:09:40;64.05;;;37.28;;
48751;SDS011;34544;48.836;9.174;2023-05-16T04:12:06;65.82;;;38.10;;
48751;SDS011;34544;48.836;9.174;2023-05-16T04:14:35;68.18;;;41.92;;
48751;SDS011;34544;48.836;9.174;2023-05-16T04:17:01;61.08;;;38.30;;
48751;SDS011;34544;48.836;9.174;2023-05-16T04:19:26;68.85;;;40.22;;
48751;SDS011;34544;48.836;9.174;2023-05-16T04:21:52;69.22;;;38.50;;
48751;SDS011;34544;48.836;9.174;2023-05-16T04:24:18;64.40;;;37.70;;
48751;SDS011;34544;48.836;9.174;2023-05-16T04:26:44;55.92;;;36.60;;
48751;SDS011;34544;48.836;9.174;2023-05-16T04:29:09;55.85;;;36.58;;
48751;SDS011;34544;48.836;9.174;2023-05-16T04:31:35;64.25;;;40.45;;
48751;SDS011;34544;48.836;9.174;2023-05-16T04:34:01;57.72;;;37.58;;
48751;SDS011;34544;48.836;9.174;2023-05-16T04:36:27;62.03;;;40.08;;
48751;SDS011;34544;48.836;9.174;2023-05-16T04:38:54;56.55;;;36.15;;
48751;SDS011;34544;48.836;9.174;2023-05-16T04:41:23;59.55;;;36.90;;
48751;SDS011;34544;48.836;9.174;2023-05-16T04:43:49;56.17;;;38.13;;
48751;SDS011;34544;48.836;9.174;2023-05-16T04:46:16;58.35;;;35.63;;
48751;SDS011;34544;48.836;9.174;2023-05-16T04:48:41;55.80;;;37.40;;
48751;SDS011;34544;48.836;9.174;2023-05-16T04:51:07;59.33;;;37.85;;
48751;SDS011;34544;48.836;9.174;2023-05-16T04:53:32;66.85;;;37.45;;
48751;SDS011;34544;48.836;9.174;2023-05-16T04:55:58;51.58;;;35.33;;
48751;SDS011;34544;48.836;9.174;2023-05-16T04:58:24;60.45;;;37.00;;
48751;SDS011;34544;48.836;9.174;2023-05-16T05:00:50;59.75;;;37.20;;
48751;SDS011;34544;48.836;9.174;2023-05-16T05:03:16;55.25;;;36.75;;
48751;SDS011;34544;48.836;9.174;2023-05-16T05:05:42;56.58;;;36.80;;
48751;SDS011;34544;48.836;9.174;2023-05-16T05:08:08;55.53;;;37.63;;
48751;SDS011;34544;48.836;9.174;2023-05-16T05:10:34;61.13;;;37.15;;
48751;SDS011;34544;48.836;9.174;2023-05-16T05:13:00;54.70;;;37.15;;
48751;SDS011;34544;48.836;9.174;2023-05-16T05:15:26;59.15;;;38.38;;
48751;SDS011;34544;48.836;9.174;2023-05-16T05:17:52;50.38;;;34.88;;
48751;SDS011;34544;48.836;9.174;2023-05-16T05:20:17;54.33;;;35.97;;
48751;SDS011;34544;48.836;9.174;2023-05-16T05:22:43;59.20;;;35.92;;
48751;SDS011;34544;48.836;9.174;2023-05-16T05:25:09;57.95;;;37.45;;
48751;SDS011;34544;48.836;9.174;2023-05-16T05:27:35;55.00;;;36.42;;
48751;SDS011;34544;48.836;9.174;2023-05-16T05:30:01;52.20;;;34.65;;
48751;SDS011;34544;48.836;9.174;2023-05-16T05:32:27;58.70;;;36.58;;
48751;SDS011;34544;48.836;9.174;2023-05-16T05:34:52;60.60;;;36.70;;
48751;SDS011;34544;48.836;9.174;2023-05-16T05:37:18;51.72;;;34.80;;
48751;SDS011;34544;48.836;9.174;2023-05-16T05:39:44;55.63;;;35.95;;
48751;SDS011;34544;48.836;9.174;2023-05-16T05:42:10;54.55;;;34.65;;
48751;SDS011;34544;48.836;9.174;2023-05-16T05:44:36;53.00;;;34.17;;
48751;SDS011;34544;48.836;9.174;2023-05-16T05:47:02;52.92;;;34.58;;
48751;SDS011;34544;48.836;9.174;2023-05-16T05:49:28;49.15;;;32.92;;
48751;SDS011;34544;48.836;9.174;2023-05-16T05:51:55;48.30;;;33.55;;
48751;SDS011;34544;48.836;9.174;2023-05-16T05:54:21;49.20;;;34.90;;
48751;SDS011;34544;48.836;9.174;2023-05-16T05:56:47;49.65;;;34.13;;
48751;SDS011;34544;48.836;9.174;2023-05-16T05:59:13;51.83;;;32.28;;
48751;SDS011;34544;48.836;9.174;2023-05-16T06:01:39;50.15;;;34.40;;
48751;SDS011;34544;48.836;9.174;2023-05-16T06:04:06;44.60;;;32.00;;
48751;SDS011;34544;48.836;9.174;2023-05-16T06:06:32;46.97;;;30.83;;
48751;SDS011;34544;48.836;9.174;2023-05-16T06:08:58;51.17;;;32.83;;
48751;SDS011;34544;48.836;9.174;2023-05-16T06:11:23;52.38;;;33.45;;
48751;SDS011;34544;48.836;9.174;2023-05-16T06:13:49;47.53;;;32.25;;
48751;SDS011;34544;48.836;9.174;2023-05-16T06:16:16;44.05;;;30.42;;
48751;SDS011;34544;48.836;9.174;2023-05-16T06:18:41;49.38;;;31.52;;
48751;SDS011;34544;48.836;9.174;2023-05-16T06:21:07;39.25;;;30.08;;
48751;SDS011;34544;48.836;9.174;2023-05-16T06:23:33;43.60;;;28.98;;
48751;SDS011;34544;48.836;9.174;2023-05-16T06:26:00;39.38;;;29.15;;
48751;SDS011;34544;48.836;9.174;2023-05-16T06:28:27;39.08;;;29.20;;
48751;SDS011;34544;48.836;9.174;2023-05-16T06:30:53;40.65;;;29.67;;
48751;SDS011;34544;48.836;9.174;2023-05-16T06:33:18;38.80;;;28.33;;
48751;SDS011;34544;48.836;9.174;2023-05-16T06:35:44;40.92;;;27.98;;
48751;SDS011;34544;48.836;9.174;2023-05-16T06:38:12;35.85;;;25.77;;
48751;SDS011;34544;48.836;9.174;2023-05-16T06:40:39;39.08;;;26.60;;
48751;SDS011;34544;48.836;9.174;2023-05-16T06:43:04;37.50;;;26.70;;
48751;SDS011;34544;48.836;9.174;2023-05-16T06:45:30;33.53;;;24.80;;
48751;SDS011;34544;48.836;9.174;2023-05-16T06:47:56;37.17;;;27.80;;
48751;SDS011;34544;48.836;9.174;2023-05-16T06:50:21;34.45;;;25.63;;
48751;SDS011;34544;48.836;9.174;2023-05-16T06:52:47;32.03;;;24.85;;
48751;SDS011;34544;48.836;9.174;2023-05-16T06:55:13;31.58;;;22.30;;
48751;SDS011;34544;48.836;9.174;2023-05-16T06:57:38;34.28;;;22.65;;
48751;SDS011;34544;48.836;9.174;2023-05-16T07:00:05;29.30;;;22.65;;
48751;SDS011;34544;48.836;9.174;2023-05-16T07:02:31;30.73;;;21.63;;
48751;SDS011;34544;48.836;9.174;2023-05-16T07:04:56;30.52;;;21.52;;
48751;SDS011;34544;48.836;9.174;2023-05-16T07:07:22;29.15;;;20.48;;
48751;SDS011;34544;48.836;9.174;2023-05-16T07:09:47;26.00;;;19.95;;
48751;SDS011;34544;48.836;9.174;2023-05-16T07:12:13;23.75;;;18.58;;
48751;SDS011;34544;48.836;9.174;2023-05-16T07:14:39;26.58;;;19.23;;
48751;SDS011;34544;48.836;9.174;2023-05-16T07:17:05;25.83;;;18.23;;
48751;SDS011;34544;48.836;9.174;2023-05-16T07:19:31;20.35;;;16.17;;
48751;SDS011;34544;48.836;9.174;2023-05-16T07:21:57;21.20;;;16.15;;
48751;SDS011;34544;48.836;9.174;2023-05-16T07:24:22;17.88;;;13.85;;
48751;SDS011;34544;48.836;9.174;2023-05-16T07:26:48;15.75;;;13.18;;
48751;SDS011;34544;48.836;9.174;2023-05-16T07:29:14;17.45;;;13.00;;
48751;SDS011;34544;48.836;9.174;2023-05-16T07:31:39;14.77;;;12.32;;
48751;SDS011;34544;48.836;9.174;2023-05-16T07:34:05;14.13;;;12.15;;
48751;SDS011;34544;48.836;9.174;2023-05-16T07:36:32;15.27;;;12.10;;
48751;SDS011;34544;48.836;9.174;2023-05-16T07:38:58;13.52;;;11.30;;
48751;SDS011;34544;48.836;9.174;2023-05-16T07:41:24;11.52;;;10.30;;
48751;SDS011;34544;48.836;9.174;2023-05-16T07:43:50;12.38;;;10.95;;
48751;SDS011;34544;48.836;9.174;2023-05-16T07:46:16;13.02;;;11.27;;
48751;SDS011;34544;48.836;9.174;2023-05-16T07:48:41;13.27;;;11.68;;
48751;SDS011;34544;48.836;9.174;2023-05-16T07:51:07;13.77;;;10.38;;
48751;SDS011;34544;48.836;9.174;2023-05-16T07:53:32;12.50;;;10.63;;
48751;SDS011;34544;48.836;9.174;2023-05-16T07:55:58;16.88;;;10.57;;
48751;SDS011;34544;48.836;9.174;2023-05-16T07:58:24;12.35;;;11.05;;
48751;SDS011;34544;48.836;9.174;2023-05-16T08:00:50;14.23;;;10.23;;
48751;SDS011;34544;48.836;9.174;2023-05-16T08:03:15;15.07;;;10.73;;
48751;SDS011;34544;48.836;9.174;2023-05-16T08:05:41;11.15;;;9.95;;
48751;SDS011;34544;48.836;9.174;2023-05-16T08:08:07;11.48;;;10.27;;
48751;SDS011;34544;48.836;9.174;2023-05-16T08:10:32;11.88;;;10.63;;
48751;SDS011;34544;48.836;9.174;2023-05-16T08:12:58;12.50;;;11.23;;
48751;SDS011;34544;48.836;9.174;2023-05-16T08:15:25;13.23;;;11.50;;
48751;SDS011;34544;48.836;9.174;2023-05-16T08:17:51;15.07;;;10.93;;
48751;SDS011;34544;48.836;9.174;2023-05-16T08:20:18;13.32;;;11.93;;
48751;SDS011;34544;48.836;9.174;2023-05-16T08:22:44;12.68;;;9.85;;
48751;SDS011;34544;48.836;9.174;2023-05-16T08:25:10;12.93;;;11.32;;
48751;SDS011;34544;48.836;9.174;2023-05-16T08:27:35;13.82;;;12.23;;
48751;SDS011;34544;48.836;9.174;2023-05-16T08:30:01;17.33;;;13.13;;
48751;SDS011;34544;48.836;9.174;2023-05-16T08:32:27;15.60;;;12.10;;
48751;SDS011;34544;48.836;9.174;2023-05-16T08:34:52;16.45;;;14.40;;
48751;SDS011;34544;48.836;9.174;2023-05-16T08:37:18;16.55;;;12.57;;
48751;SDS011;34544;48.836;9.174;2023-05-16T08:39:44;15.95;;;13.38;;
48751;SDS011;34544;48.836;9.174;2023-05-16T08:42:10;18.38;;;13.73;;
48751;SDS011;34544;48.836;9.174;2023-05-16T08:44:36;22.75;;;15.43;;
48751;SDS011;34544;48.836;9.174;2023-05-16T08:47:06;17.80;;;15.13;;
48751;SDS011;34544;48.836;9.174;2023-05-16T08:49:41;17.70;;;14.45;;
48751;SDS011;34544;48.836;9.174;2023-05-16T08:52:11;21.35;;;16.08;;
48751;SDS011;34544;48.836;9.174;2023-05-16T08:54:38;19.65;;;15.82;;
48751;SDS011;34544;48.836;9.174;2023-05-16T08:57:05;19.17;;;14.20;;
48751;SDS011;34544;48.836;9.174;2023-05-16T08:59:32;17.33;;;15.27;;
48751;SDS011;34544;48.836;9.174;2023-05-16T09:01:59;19.10;;;15.05;;
48751;SDS011;34544;48.836;9.174;2023-05-16T09:04:24;20.50;;;16.48;;
48751;SDS011;34544;48.836;9.174;2023-05-16T09:06:51;18.02;;;15.18;;
48751;SDS011;34544;48.836;9.174;2023-05-16T09:09:17;19.85;;;17.15;;
48751;SDS011;34544;48.836;9.174;2023-05-16T09:11:43;21.90;;;17.98;;
48751;SDS011;34544;48.836;9.174;2023-05-16T09:14:09;24.98;;;17.52;;
48751;SDS011;34544;48.836;9.174;2023-05-16T09:16:35;25.23;;;19.67;;
48751;SDS011;34544;48.836;9.174;2023-05-16T09:19:01;25.77;;;19.20;;
48751;SDS011;34544;48.836;9.174;2023-05-16T09:21:29;24.58;;;19.20;;
48751;SDS011;34544;48.836;9.174;2023-05-16T09:24:01;25.92;;;19.88;;
48751;SDS011;34544;48.836;9.174;2023-05-16T09:26:28;30.85;;;20.38;;
48751;SDS011;34544;48.836;9.174;2023-05-16T09:28:55;23.45;;;19.38;;
48751;SDS011;34544;48.836;9.174;2023-05-16T09:31:21;24.15;;;19.25;;
48751;SDS011;34544;48.836;9.174;2023-05-16T09:33:51;24.60;;;19.13;;
48751;SDS011;34544;48.836;9.174;2023-05-16T09:36:25;24.38;;;18.35;;
48751;SDS011;34544;48.836;9.174;2023-05-16T09:38:51;26.23;;;20.95;;
48751;SDS011;34544;48.836;9.174;2023-05-16T09:41:17;25.35;;;18.40;;
48751;SDS011;34544;48.836;9.174;2023-05-16T09:43:45;25.92;;;17.85;;
48751;SDS011;34544;48.836;9.174;2023-05-16T09:46:14;22.73;;;17.35;;
48751;SDS011;34544;48.836;9.174;2023-05-16T09:48:41;24.02;;;17.75;;
48751;SDS011;34544;48.836;9.174;2023-05-16T09:51:10;22.75;;;17.13;;
48751;SDS011;34544;48.836;9.174;2023-05-16T09:53:37;22.23;;;17.63;;
48751;SDS011;34544;48.836;9.174;2023-05-16T09:56:09;20.60;;;17.27;;
48751;SDS011;34544;48.836;9.174;2023-05-16T09:58:39;21.95;;;17.27;;
48751;SDS011;34544;48.836;9.174;2023-05-16T10:01:07;27.95;;;16.75;;
48751;SDS011;34544;48.836;9.174;2023-05-16T10:03:34;19.90;;;16.35;;
48751;SDS011;34544;48.836;9.174;2023-05-16T10:06:01;29.58;;;16.70;;
48751;SDS011;34544;48.836;9.174;2023-05-16T10:08:28;22.58;;;17.27;;
48751;SDS011;34544;48.836;9.174;2023-05-16T10:10:56;21.27;;;15.63;;
48751;SDS011;34544;48.836;9.174;2023-05-16T10:13:27;20.08;;;15.98;;
48751;SDS011;34544;48.836;9.174;2023-05-16T10:15:54;22.23;;;15.35;;
48751;SDS011;34544;48.836;9.174;2023-05-16T10:18:21;17.08;;;14.57;;
48751;SDS011;34544;48.836;9.174;2023-05-16T10:20:50;22.30;;;16.73;;
48751;SDS011;34544;48.836;9.174;2023-05-16T10:23:18;20.58;;;15.85;;
48751;SDS011;34544;48.836;9.174;2023-05-16T10:25:46;24.23;;;16.23;;
48751;SDS011;34544;48.836;9.174;2023-05-16T10:28:13;21.70;;;14.30;;
48751;SDS011;34544;48.836;9.174;2023-05-16T10:30:41;19.70;;;14.73;;
48751;SDS011;34544;48.836;9.174;2023-05-16T10:33:11;21.15;;;15.77;;
48751;SDS011;34544;48.836;9.174;2023-05-16T10:35:38;20.70;;;15.10;;
48751;SDS011;34544;48.836;9.174;2023-05-16T10:38:03;19.20;;;15.35;;
48751;SDS011;34544;48.836;9.174;2023-05-16T10:40:31;24.77;;;15.98;;
48751;SDS011;34544;48.836;9.174;2023-05-16T10:43:01;22.33;;;15.32;;
48751;SDS011;34544;48.836;9.174;2023-05-16T10:45:28;20.27;;;14.40;;
48751;SDS011;34544;48.836;9.174;2023-05-16T10:50:33;16.77;;;13.73;;
48751;SDS011;34544;48.836;9.174;2023-05-16T11:06:31;18.10;;;12.63;;
48751;SDS011;34544;48.836;9.174;2023-05-16T11:11:37;15.30;;;12.20;;
48751;SDS011;34544;48.836;9.174;2023-05-16T11:16:50;14.75;;;11.15;;
48751;SDS011;34544;48.836;9.174;2023-05-16T11:25:00;11.60;;;8.85;;
48751;SDS011;34544;48.836;9.174;2023-05-16T11:27:30;13.15;;;8.50;;
48751;SDS011;34544;48.836;9.174;2023-05-16T11:29:58;10.35;;;8.88;;
48751;SDS011;34544;48.836;9.174;2023-05-16T11:32:38;13.57;;;8.75;;
48751;SDS011;34544;48.836;9.174;2023-05-16T11:35:06;12.15;;;8.80;;
48751;SDS011;34544;48.836;9.174;2023-05-16T11:37:35;11.15;;;8.20;;
48751;SDS011;34544;48.836;9.174;2023-05-16T11:40:03;12.18;;;9.02;;
48751;SDS011;34544;48.836;9.174;2023-05-16T11:42:33;13.27;;;7.93;;
48751;SDS011;34544;48.836;9.174;2023-05-16T11:45:10;11.63;;;8.20;;
48751;SDS011;34544;48.836;9.174;2023-05-16T11:47:41;9.75;;;7.00;;
48751;SDS011;34544;48.836;9.174;2023-05-16T11:52:52;8.90;;;6.65;;
48751;SDS011;34544;48.836;9.174;2023-05-16T11:55:21;10.15;;;7.22;;
48751;SDS011;34544;48.836;9.174;2023-05-16T11:57:51;9.63;;;6.72;;
48751;SDS011;34544;48.836;9.174;2023-05-16T12:00:18;7.47;;;6.72;;
48751;SDS011;34544;48.836;9.174;2023-05-16T12:02:46;10.60;;;8.35;;
48751;SDS011;34544;48.836;9.174;2023-05-16T12:05:13;9.15;;;6.70;;
48751;SDS011;34544;48.836;9.174;2023-05-16T12:07:40;10.20;;;7.82;;
48751;SDS011;34544;48.836;9.174;2023-05-16T12:10:09;8.63;;;6.38;;
48751;SDS011;34544;48.836;9.174;2023-05-16T12:12:35;8.20;;;6.60;;
48751;SDS011;34544;48.836;9.174;2023-05-16T12:15:03;7.68;;;6.80;;
48751;SDS011;34544;48.836;9.174;2023-05-16T12:17:31;7.25;;;6.50;;
48751;SDS011;34544;48.836;9.174;2023-05-16T12:20:01;9.45;;;6.05;;
48751;SDS011;34544;48.836;9.174;2023-05-16T12:22:34;6.22;;;5.43;;
48751;SDS011;34544;48.836;9.174;2023-05-16T12:27:55;4.93;;;4.10;;
48751;SDS011;34544;48.836;9.174;2023-05-16T12:30:23;5.32;;;4.40;;
48751;SDS011;34544;48.836;9.174;2023-05-16T12:33:00;3.75;;;3.33;;
48751;SDS011;34544;48.836;9.174;2023-05-16T12:35:31;12.10;;;4.20;;
48751;SDS011;34544;48.836;9.174;2023-05-16T12:37:58;3.97;;;3.53;;
48751;SDS011;34544;48.836;9.174;2023-05-16T12:40:28;5.45;;;4.68;;
48751;SDS011;34544;48.836;9.174;2023-05-16T12:42:54;4.60;;;3.42;;
48751;SDS011;34544;48.836;9.174;2023-05-16T12:45:20;4.28;;;3.55;;
48751;SDS011;34544;48.836;9.174;2023-05-16T12:47:47;3.30;;;3.00;;
48751;SDS011;34544;48.836;9.174;2023-05-16T12:50:14;4.40;;;3.15;;
48751;SDS011;34544;48.836;9.174;2023-05-16T12:52:48;4.13;;;3.58;;
48751;SDS011;34544;48.836;9.174;2023-05-16T12:55:15;4.00;;;2.85;;
48751;SDS011;34544;48.836;9.174;2023-05-16T12:57:45;3.90;;;2.70;;
48751;SDS011;34544;48.836;9.174;2023-05-16T13:00:12;2.80;;;2.55;;
48751;SDS011;34544;48.836;9.174;2023-05-16T13:02:39;3.33;;;2.90;;
48751;SDS011;34544;48.836;9.174;2023-05-16T13:05:06;2.88;;;2.63;;
48751;SDS011;34544;48.836;9.174;2023-05-16T13:07:34;2.75;;;2.53;;
48751;SDS011;34544;48.836;9.174;2023-05-16T13:10:00;4.72;;;2.75;;
48751;SDS011;34544;48.836;9.174;2023-05-16T13:12:28;3.72;;;2.67;;
48751;SDS011;34544;48.836;9.174;2023-05-16T13:14:54;5.30;;;3.25;;
48751;SDS011;34544;48.836;9.174;2023-05-16T13:17:20;2.97;;;2.40;;
48751;SDS011;34544;48.836;9.174;2023-05-16T13:19:45;3.00;;;2.70;;
48751;SDS011;34544;48.836;9.174;2023-05-16T13:22:11;4.07;;;2.40;;
48751;SDS011;34544;48.836;9.174;2023-05-16T13:24:37;4.95;;;2.05;;
48751;SDS011;34544;48.836;9.174;2023-05-16T13:27:02;2.83;;;1.92;;
48751;SDS011;34544;48.836;9.174;2023-05-16T13:29:28;2.28;;;2.03;;
48751;SDS011;34544;48.836;9.174;2023-05-16T13:31:54;3.60;;;2.20;;
48751;SDS011;34544;48.836;9.174;2023-05-16T13:34:19;3.20;;;2.17;;
48751;SDS011;34544;48.836;9.174;2023-05-16T13:36:45;4.53;;;2.15;;
48751;SDS011;34544;48.836;9.174;2023-05-16T13:39:11;4.97;;;2.25;;
48751;SDS011;34544;48.836;9.174;2023-05-16T13:41:37;3.08;;;2.47;;
48751;SDS011;34544;48.836;9.174;2023-05-16T13:44:05;2.50;;;2.05;;
48751;SDS011;34544;48.836;9.174;2023-05-16T13:46:30;5.95;;;2.30;;
48751;SDS011;34544;48.836;9.174;2023-05-16T13:48:56;3.05;;;2.33;;
48751;SDS011;34544;48.836;9.174;2023-05-16T13:51:22;6.00;;;2.13;;
48751;SDS011;34544;48.836;9.174;2023-05-16T13:53:47;2.70;;;1.88;;
48751;SDS011;34544;48.836;9.174;2023-05-16T13:56:13;7.35;;;1.95;;
48751;SDS011;34544;48.836;9.174;2023-05-16T13:58:39;4.55;;;2.22;;
48751;SDS011;34544;48.836;9.174;2023-05-16T14:01:05;1.88;;;1.58;;
48751;SDS011;34544;48.836;9.174;2023-05-16T14:03:31;6.60;;;1.90;;
48751;SDS011;34544;48.836;9.174;2023-05-16T14:05:57;9.23;;;3.03;;
48751;SDS011;34544;48.836;9.174;2023-05-16T14:08:22;2.80;;;2.10;;
48751;SDS011;34544;48.836;9.174;2023-05-16T14:10:48;7.35;;;2.35;;
48751;SDS011;34544;48.836;9.174;2023-05-16T14:13:13;2.92;;;2.15;;
48751;SDS011;34544;48.836;9.174;2023-05-16T14:15:39;5.22;;;2.17;;
48751;SDS011;34544;48.836;9.174;2023-05-16T14:18:05;4.72;;;2.65;;
48751;SDS011;34544;48.836;9.174;2023-05-16T14:20:31;3.10;;;2.78;;
48751;SDS011;34544;48.836;9.174;2023-05-16T14:22:57;4.63;;;2.72;;
48751;SDS011;34544;48.836;9.174;2023-05-16T14:25:23;4.15;;;2.00;;
48751;SDS011;34544;48.836;9.174;2023-05-16T14:27:48;2.63;;;1.90;;
48751;SDS011;34544;48.836;9.174;2023-05-16T14:30:15;4.13;;;2.20;;
48751;SDS011;34544;48.836;9.174;2023-05-16T14:32:41;2.45;;;1.52;;
48751;SDS011;34544;48.836;9.174;2023-05-16T14:35:07;4.13;;;1.83;;
48751;SDS011;34544;48.836;9.174;2023-05-16T14:37:33;2.83;;;1.65;;
48751;SDS011;34544;48.836;9.174;2023-05-16T14:39:59;5.38;;;1.42;;
48751;SDS011;34544;48.836;9.174;2023-05-16T14:42:25;1.42;;;1.23;;
48751;SDS011;34544;48.836;9.174;2023-05-16T14:44:51;2.55;;;1.77;;
48751;SDS011;34544;48.836;9.174;2023-05-16T14:47:17;1.73;;;1.63;;
48751;SDS011;34544;48.836;9.174;2023-05-16T14:49:43;2.00;;;1.67;;
48751;SDS011;34544;48.836;9.174;2023-05-16T14:52:08;5.05;;;1.17;;
48751;SDS011;34544;48.836;9.174;2023-05-16T14:54:34;2.67;;;1.45;;
48751;SDS011;34544;48.836;9.174;2023-05-16T14:57:00;3.05;;;1.63;;
48751;SDS011;34544;48.836;9.174;2023-05-16T14:59:27;1.58;;;1.42;;
48751;SDS011;34544;48.836;9.174;2023-05-16T15:01:53;3.25;;;1.45;;
48751;SDS011;34544;48.836;9.174;2023-05-16T15:04:19;8.52;;;1.58;;
48751;SDS011;34544;48.836;9.174;2023-05-16T15:06:45;5.32;;;1.20;;
48751;SDS011;34544;48.836;9.174;2023-05-16T15:09:10;2.70;;;1.00;;
48751;SDS011;34544;48.836;9.174;2023-05-16T15:11:36;2.85;;;1.40;;